Time;durP1;ratioP1;P1;durP2;ratioP2;P2;SDS_P1;SDS_P2;PMS_P1;PMS_P2;Temp;Humidity;BMP_temperature;BMP_pressure;BME280_temperature;BME280_humidity;BME280_pressure;Samples;Min_cycle;Max_cycle;Signal;HPM_P1;HPM_P2
2023/08/18 00:01:53;;;;;;;3.55;1.42;;;16.90;99.90;;;;;;5091749;28;20044;-87
2023/08/18 00:04:19;;;;;;;2.53;1.27;;;16.90;99.90;;;;;;5058445;28;20056;-87
2023/08/18 00:06:46;;;;;;;2.70;1.30;;;16.90;99.90;;;;;;5074542;28;20092;-86
2023/08/18 00:09:13;;;;;;;3.88;1.40;;;16.90;99.90;;;;;;5058311;28;20071;-87
2023/08/18 00:11:40;;;;;;;3.28;1.38;;;16.90;99.90;;;;;;5074557;28;20131;-87
2023/08/18 00:14:06;;;;;;;3.83;1.48;;;16.90;99.90;;;;;;5074759;28;20531;-87
2023/08/18 00:16:33;;;;;;;4.07;1.40;;;16.90;99.90;;;;;;5074430;28;20116;-87
2023/08/18 00:19:00;;;;;;;3.58;1.60;;;16.90;99.90;;;;;;5074520;28;20040;-87
2023/08/18 00:21:26;;;;;;;3.97;1.30;;;16.90;99.90;;;;;;5074180;28;20523;-87
2023/08/18 00:23:53;;;;;;;4.40;1.58;;;16.90;99.90;;;;;;5057800;28;20044;-87
2023/08/18 00:26:20;;;;;;;2.85;1.30;;;16.90;99.90;;;;;;5074866;28;20036;-87
2023/08/18 00:28:47;;;;;;;3.00;1.27;;;16.90;99.90;;;;;;5074107;28;20047;-87
2023/08/18 00:31:14;;;;;;;5.80;1.30;;;16.90;99.90;;;;;;5058109;28;20087;-87
2023/08/18 00:33:40;;;;;;;3.33;1.40;;;16.90;99.90;;;;;;5074305;28;20469;-87
2023/08/18 00:36:07;;;;;;;3.60;1.50;;;16.80;99.90;;;;;;5058046;28;20045;-87
2023/08/18 00:38:34;;;;;;;4.13;1.20;;;16.90;99.90;;;;;;5057579;28;20078;-87
2023/08/18 00:41:01;;;;;;;2.70;1.40;;;16.90;99.90;;;;;;5073601;28;20127;-87
2023/08/18 00:43:27;;;;;;;2.72;1.13;;;16.90;99.90;;;;;;5073970;28;20067;-87
2023/08/18 00:45:55;;;;;;;3.17;1.50;;;16.90;99.90;;;;;;5073890;28;20408;-87
2023/08/18 00:48:22;;;;;;;3.45;1.58;;;16.90;99.90;;;;;;5057789;28;20127;-87
2023/08/18 00:50:50;;;;;;;4.30;1.20;;;16.80;99.90;;;;;;5073729;28;20395;-87
2023/08/18 00:53:17;;;;;;;3.58;1.50;;;16.90;99.90;;;;;;5074198;28;20149;-87
2023/08/18 00:55:47;;;;;;;2.85;1.40;;;16.80;99.90;;;;;;5073715;28;20447;-87
2023/08/18 00:58:14;;;;;;;3.40;1.60;;;16.80;99.90;;;;;;5073986;28;20098;-86
2023/08/18 01:00:41;;;;;;;5.18;1.30;;;16.80;99.90;;;;;;5089953;28;20040;-86
2023/08/18 01:03:10;;;;;;;4.43;1.45;;;16.80;99.90;;;;;;5073706;28;20036;-87
2023/08/18 01:05:36;;;;;;;5.05;1.50;;;16.80;99.90;;;;;;5090148;28;20043;-86
2023/08/18 01:08:04;;;;;;;3.00;1.40;;;16.80;99.90;;;;;;5090191;28;20040;-87
2023/08/18 01:10:38;;;;;;;4.20;1.52;;;16.80;99.90;;;;;;5090091;28;20431;-87
2023/08/18 01:13:34;;;;;;;3.33;1.48;;;16.80;99.90;;;;;;5090808;28;20072;-87
2023/08/18 01:16:04;;;;;;;5.13;1.70;;;16.80;99.90;;;;;;5072447;28;20044;-87
2023/08/18 01:18:32;;;;;;;3.08;1.60;;;16.80;99.90;;;;;;5090294;28;20127;-87
2023/08/18 01:21:02;;;;;;;5.28;1.38;;;16.80;99.90;;;;;;5089833;28;20102;-87
2023/08/18 01:23:39;;;;;;;5.00;1.65;;;16.80;99.90;;;;;;5089594;28;20037;-87
2023/08/18 01:26:06;;;;;;;4.03;1.70;;;16.70;99.90;;;;;;5073852;28;20119;-87
2023/08/18 01:28:34;;;;;;;3.22;1.50;;;16.70;99.90;;;;;;5073651;28;20075;-87
2023/08/18 01:31:06;;;;;;;3.35;1.77;;;16.70;99.90;;;;;;5089825;28;20493;-87
2023/08/18 01:33:43;;;;;;;4.38;1.60;;;16.70;99.90;;;;;;5090520;28;20036;-87
2023/08/18 01:36:17;;;;;;;5.50;2.00;;;16.70;99.90;;;;;;5089787;28;20041;-87
2023/08/18 01:38:46;;;;;;;4.10;1.70;;;16.70;99.90;;;;;;5089622;28;20047;-86
2023/08/18 01:41:17;;;;;;;3.78;1.85;;;16.70;99.90;;;;;;5073156;28;20084;-87
2023/08/18 01:43:43;;;;;;;5.38;2.10;;;16.70;99.90;;;;;;5089332;28;20087;-87
2023/08/18 01:46:10;;;;;;;3.03;1.70;;;16.70;99.90;;;;;;5056640;28;20082;-87
2023/08/18 01:48:37;;;;;;;4.15;1.90;;;16.70;99.90;;;;;;5089877;28;20519;-87
2023/08/18 01:51:04;;;;;;;3.25;1.80;;;16.70;99.90;;;;;;5089331;28;20041;-87
2023/08/18 01:53:30;;;;;;;5.85;2.22;;;16.60;99.90;;;;;;5089459;28;20151;-87
2023/08/18 01:56:01;;;;;;;5.25;2.00;;;16.70;99.90;;;;;;5056349;28;20497;-86
2023/08/18 01:58:28;;;;;;;5.72;2.00;;;16.60;99.90;;;;;;5073034;28;20079;-87
2023/08/18 02:00:56;;;;;;;3.78;1.73;;;16.60;99.90;;;;;;5073195;28;20041;-87
2023/08/18 02:03:23;;;;;;;4.20;2.17;;;16.70;99.90;;;;;;5089939;28;20076;-87
2023/08/18 02:05:54;;;;;;;4.18;1.92;;;16.70;99.90;;;;;;5056450;28;20567;-87
2023/08/18 02:08:21;;;;;;;5.38;1.83;;;16.70;99.90;;;;;;5089603;28;20037;-87
2023/08/18 02:10:48;;;;;;;3.83;1.80;;;16.70;99.90;;;;;;5073310;28;20634;-87
2023/08/18 02:13:15;;;;;;;4.40;1.73;;;16.70;99.90;;;;;;5089458;28;20182;-87
2023/08/18 02:15:45;;;;;;;3.20;1.85;;;16.70;99.90;;;;;;5089744;28;20041;-87
2023/08/18 02:18:12;;;;;;;4.88;2.05;;;16.70;99.90;;;;;;5089722;28;20048;-87
2023/08/18 02:20:39;;;;;;;5.45;2.28;;;16.70;99.90;;;;;;5072819;28;20041;-87
2023/08/18 02:23:05;;;;;;;4.50;2.13;;;16.70;99.90;;;;;;5089406;28;20086;-87
2023/08/18 02:25:32;;;;;;;3.63;2.10;;;16.70;99.90;;;;;;5073141;28;20040;-87
2023/08/18 02:27:59;;;;;;;5.20;2.15;;;16.70;99.90;;;;;;5089699;28;20078;-87
2023/08/18 02:30:26;;;;;;;3.78;2.33;;;16.70;99.90;;;;;;5073155;28;20041;-87
2023/08/18 02:32:53;;;;;;;7.30;2.38;;;16.70;99.90;;;;;;5057027;28;20040;-87
2023/08/18 02:35:19;;;;;;;5.38;2.42;;;16.60;99.90;;;;;;5056464;28;20059;-86
2023/08/18 02:37:46;;;;;;;5.47;2.35;;;16.60;99.90;;;;;;5056531;28;20079;-87
2023/08/18 02:40:13;;;;;;;7.45;2.80;;;16.60;99.90;;;;;;5056174;28;20407;-87
2023/08/18 02:42:41;;;;;;;6.28;2.50;;;16.60;99.90;;;;;;5056210;28;20569;-87
2023/08/18 02:45:08;;;;;;;5.47;2.80;;;16.60;99.90;;;;;;5072612;28;20041;-87
2023/08/18 02:47:37;;;;;;;4.93;2.55;;;16.60;99.90;;;;;;5056583;28;20097;-87
2023/08/18 02:50:06;;;;;;;5.05;2.28;;;16.60;99.90;;;;;;5089326;28;20040;-87
2023/08/18 02:52:33;;;;;;;6.90;2.55;;;16.60;99.90;;;;;;5056293;28;20408;-87
2023/08/18 02:55:00;;;;;;;4.95;2.42;;;16.60;99.90;;;;;;5088823;28;20049;-86
2023/08/18 02:57:27;;;;;;;4.57;2.75;;;16.60;99.90;;;;;;5056278;28;20052;-87
2023/08/18 02:59:53;;;;;;;5.47;2.97;;;16.50;99.90;;;;;;5072652;28;20094;-86
2023/08/18 03:02:20;;;;;;;6.22;2.65;;;16.60;99.90;;;;;;5056112;28;20033;-87
2023/08/18 03:04:47;;;;;;;5.32;2.80;;;16.60;99.90;;;;;;5057426;28;20066;-87
2023/08/18 03:07:14;;;;;;;5.00;2.60;;;16.50;99.90;;;;;;5092610;28;20055;-87
2023/08/18 03:09:42;;;;;;;7.65;2.95;;;16.60;99.90;;;;;;5092695;28;20123;-87
2023/08/18 03:12:09;;;;;;;6.25;2.92;;;16.60;99.90;;;;;;5092591;28;20510;-87
2023/08/18 03:14:35;;;;;;;4.65;2.47;;;16.50;99.90;;;;;;5075779;28;20131;-88
2023/08/18 03:17:02;;;;;;;5.15;2.50;;;16.50;99.90;;;;;;5059325;28;20472;-88
2023/08/18 03:19:29;;;;;;;8.40;2.90;;;16.60;99.90;;;;;;5059237;28;20049;-87
2023/08/18 03:21:55;;;;;;;5.30;2.78;;;16.60;99.90;;;;;;5075507;28;20037;-87
2023/08/18 03:24:22;;;;;;;7.55;3.08;;;16.50;99.90;;;;;;5059574;28;20045;-87
2023/08/18 03:26:49;;;;;;;4.82;2.70;;;16.50;99.90;;;;;;5092734;28;20045;-87
2023/08/18 03:29:15;;;;;;;4.88;2.92;;;16.50;99.90;;;;;;5059075;28;20040;-87
2023/08/18 03:31:42;;;;;;;8.80;2.92;;;16.50;99.90;;;;;;5059227;28;20037;-87
2023/08/18 03:34:09;;;;;;;4.40;2.75;;;16.50;99.90;;;;;;5058910;28;20052;-87
2023/08/18 03:36:35;;;;;;;7.05;3.00;;;16.60;99.90;;;;;;5075501;28;20040;-88
2023/08/18 03:39:02;;;;;;;6.10;3.20;;;16.60;99.90;;;;;;5075411;28;20063;-87
2023/08/18 03:41:29;;;;;;;4.88;3.10;;;16.60;99.90;;;;;;5075907;28;20040;-87
2023/08/18 03:43:55;;;;;;;5.85;3.03;;;16.60;99.90;;;;;;5079120;28;20079;-87
2023/08/18 03:46:25;;;;;;;5.65;2.83;;;16.60;99.90;;;;;;5062535;28;20043;-87
2023/08/18 03:48:52;;;;;;;4.53;2.90;;;16.60;99.90;;;;;;5063059;28;20114;-87
2023/08/18 03:51:18;;;;;;;5.30;2.88;;;16.60;99.90;;;;;;5094979;28;20044;-87
2023/08/18 03:53:45;;;;;;;6.18;3.00;;;16.60;99.90;;;;;;5078760;28;20127;-87
2023/08/18 03:56:12;;;;;;;8.68;2.70;;;16.60;99.90;;;;;;5095230;28;20098;-87
2023/08/18 03:58:39;;;;;;;6.65;2.80;;;16.60;99.90;;;;;;5095088;28;20039;-87
2023/08/18 04:01:08;;;;;;;7.07;3.33;;;16.60;99.90;;;;;;5078697;28;20089;-86
2023/08/18 04:03:37;;;;;;;5.53;2.65;;;16.60;99.90;;;;;;5094839;28;20512;-86
2023/08/18 04:06:04;;;;;;;6.43;3.10;;;16.60;99.90;;;;;;5078687;28;20036;-86
2023/08/18 04:08:38;;;;;;;5.10;2.90;;;16.60;99.90;;;;;;5111495;28;20047;-87
2023/08/18 04:11:05;;;;;;;5.72;2.80;;;16.60;99.90;;;;;;5078463;28;20135;-86
2023/08/18 04:13:32;;;;;;;5.75;2.83;;;16.60;99.90;;;;;;5094852;28;20139;-87
2023/08/18 04:15:59;;;;;;;5.25;2.80;;;16.70;99.90;;;;;;5078396;28;20381;-87
2023/08/18 04:18:26;;;;;;;6.28;2.75;;;16.70;99.90;;;;;;5061474;28;20047;-87
2023/08/18 04:20:53;;;;;;;4.70;2.50;;;16.70;99.90;;;;;;5061699;28;20078;-86
2023/08/18 04:23:20;;;;;;;8.07;2.53;;;16.70;99.90;;;;;;5061544;28;20044;-87
2023/08/18 04:25:47;;;;;;;7.03;2.80;;;16.70;99.90;;;;;;5094338;28;20047;-86
2023/08/18 04:28:17;;;;;;;5.10;2.50;;;16.70;99.90;;;;;;5094855;28;20523;-87
2023/08/18 04:30:48;;;;;;;6.28;2.55;;;16.70;99.90;;;;;;5094188;28;20120;-87
2023/08/18 04:33:14;;;;;;;6.93;2.70;;;16.70;99.90;;;;;;5093914;28;20515;-87
2023/08/18 04:35:41;;;;;;;5.88;2.50;;;16.70;99.90;;;;;;5061206;28;20067;-86
2023/08/18 04:38:08;;;;;;;8.07;2.63;;;16.70;99.90;;;;;;5093855;28;20040;-86
2023/08/18 04:40:35;;;;;;;6.30;2.38;;;16.70;99.90;;;;;;5110927;28;20082;-87
2023/08/18 04:43:01;;;;;;;7.07;2.63;;;16.70;99.90;;;;;;5077736;28;20649;-87
2023/08/18 04:45:28;;;;;;;4.75;2.60;;;16.70;99.90;;;;;;5094020;28;20118;-87
2023/08/18 04:47:55;;;;;;;5.55;2.63;;;16.70;99.90;;;;;;5061229;28;20750;-86
2023/08/18 04:50:22;;;;;;;3.95;2.35;;;16.80;99.90;;;;;;5077548;28;20076;-87
2023/08/18 04:52:48;;;;;;;8.65;2.72;;;16.70;99.90;;;;;;5061370;28;20040;-87
2023/08/18 04:55:15;;;;;;;6.05;2.55;;;16.80;99.90;;;;;;5077433;28;20048;-87
2023/08/18 04:57:42;;;;;;;7.13;2.80;;;16.70;99.90;;;;;;5061037;28;20482;-87
2023/08/18 05:00:11;;;;;;;4.50;2.38;;;16.70;99.90;;;;;;5061130;28;20035;-87
2023/08/18 05:02:37;;;;;;;7.43;2.45;;;16.80;99.90;;;;;;5061317;28;20139;-86
2023/08/18 05:05:05;;;;;;;4.88;2.40;;;16.80;99.90;;;;;;5060839;28;20040;-87
2023/08/18 05:07:32;;;;;;;5.50;2.33;;;16.80;99.90;;;;;;5060728;28;20071;-87
2023/08/18 05:09:59;;;;;;;6.00;2.60;;;16.80;99.90;;;;;;5061266;28;20115;-86
2023/08/18 05:12:25;;;;;;;6.13;2.65;;;16.80;99.90;;;;;;5077046;28;20090;-87
2023/08/18 05:14:52;;;;;;;9.23;2.60;;;16.80;99.90;;;;;;5093890;28;20044;-87
2023/08/18 05:17:19;;;;;;;4.80;2.60;;;16.80;99.90;;;;;;5060384;28;20147;-87
2023/08/18 05:19:46;;;;;;;16.42;3.75;;;16.70;99.90;;;;;;5060244;28;20042;-87
2023/08/18 05:22:12;;;;;;;6.00;2.58;;;16.80;99.90;;;;;;5076773;28;20504;-87
2023/08/18 05:24:39;;;;;;;5.90;2.75;;;16.90;99.90;;;;;;5093604;28;20488;-86
2023/08/18 05:27:06;;;;;;;6.70;2.80;;;16.80;99.90;;;;;;5076350;28;20043;-87
2023/08/18 05:29:33;;;;;;;7.60;2.63;;;16.80;99.90;;;;;;5060370;28;20343;-87
2023/08/18 05:31:59;;;;;;;6.63;2.78;;;16.80;99.90;;;;;;5060157;28;20054;-87
2023/08/18 05:34:26;;;;;;;8.75;2.75;;;16.80;99.90;;;;;;5109819;28;20043;-87
2023/08/18 05:36:54;;;;;;;5.82;2.53;;;16.90;99.90;;;;;;5060802;28;20043;-87
2023/08/18 05:39:20;;;;;;;5.07;2.53;;;16.90;99.90;;;;;;5060275;28;20408;-87
2023/08/18 05:41:47;;;;;;;5.65;2.40;;;16.80;99.90;;;;;;5060196;28;20056;-87
2023/08/18 05:44:14;;;;;;;7.57;2.70;;;16.90;99.90;;;;;;5060227;28;20044;-87
2023/08/18 05:46:41;;;;;;;7.80;2.55;;;16.90;99.90;;;;;;5060524;28;20044;-87
2023/08/18 05:49:08;;;;;;;5.18;2.58;;;16.90;99.90;;;;;;5110128;28;20052;-87
2023/08/18 05:51:35;;;;;;;5.63;2.58;;;16.90;99.90;;;;;;5076440;28;20043;-87
2023/08/18 05:54:03;;;;;;;8.90;2.88;;;16.90;99.90;;;;;;5077166;28;20586;-87
2023/08/18 05:56:30;;;;;;;5.55;2.65;;;17.00;99.90;;;;;;5060914;28;20430;-88
2023/08/18 05:58:57;;;;;;;6.93;3.35;;;17.00;99.90;;;;;;5060692;28;20054;-88
2023/08/18 06:01:25;;;;;;;7.22;2.95;;;17.00;99.90;;;;;;5076850;28;20036;-88
2023/08/18 06:03:51;;;;;;;7.60;2.97;;;17.00;99.90;;;;;;5061195;28;20040;-88
2023/08/18 06:06:18;;;;;;;7.13;3.05;;;17.00;99.90;;;;;;5077366;28;20126;-88
2023/08/18 06:08:45;;;;;;;9.32;2.97;;;17.10;99.90;;;;;;5093675;28;20036;-87
2023/08/18 06:11:12;;;;;;;6.80;2.80;;;17.60;99.90;;;;;;5093581;28;20048;-88
2023/08/18 06:13:39;;;;;;;6.15;2.60;;;17.20;99.90;;;;;;5093636;28;20457;-88
2023/08/18 06:16:06;;;;;;;5.53;2.75;;;17.20;99.90;;;;;;5093774;28;20044;-87
2023/08/18 06:18:33;;;;;;;6.15;2.65;;;17.20;99.90;;;;;;5109514;28;20494;-87
2023/08/18 06:20:59;;;;;;;4.88;2.58;;;17.30;99.90;;;;;;5060263;28;20079;-87
2023/08/18 06:23:26;;;;;;;5.88;2.40;;;17.30;99.90;;;;;;5076623;28;20035;-87
2023/08/18 06:25:56;;;;;;;9.35;2.65;;;17.30;99.90;;;;;;5076926;28;20039;-87
2023/08/18 06:28:25;;;;;;;6.45;2.53;;;17.30;99.90;;;;;;5109552;28;20443;-86
2023/08/18 06:30:52;;;;;;;7.70;2.92;;;17.40;99.90;;;;;;5076503;28;20407;-88
2023/08/18 06:33:20;;;;;;;5.22;2.67;;;17.40;99.90;;;;;;5081787;28;20123;-87
2023/08/18 06:35:50;;;;;;;5.72;2.80;;;17.40;99.90;;;;;;5077673;28;20054;-88
2023/08/18 06:38:17;;;;;;;6.95;2.90;;;17.50;99.90;;;;;;5076678;28;20048;-87
2023/08/18 06:40:45;;;;;;;5.35;2.47;;;17.50;99.90;;;;;;5095257;28;20599;-88
2023/08/18 06:43:12;;;;;;;5.57;2.58;;;17.50;99.90;;;;;;5080066;28;20064;-87
2023/08/18 06:45:38;;;;;;;4.53;2.50;;;17.50;99.90;;;;;;5113377;28;20118;-87
2023/08/18 06:48:05;;;;;;;7.97;3.30;;;17.50;99.90;;;;;;5096722;28;20043;-87
2023/08/18 06:50:32;;;;;;;12.18;3.15;;;17.50;99.90;;;;;;5079617;28;20404;-87
2023/08/18 06:52:59;;;;;;;11.90;3.15;;;17.60;99.90;;;;;;5079833;28;20036;-87
2023/08/18 06:55:25;;;;;;;6.38;3.00;;;17.60;99.90;;;;;;5079801;28;20047;-87
2023/08/18 06:57:52;;;;;;;8.73;3.47;;;17.60;99.90;;;;;;5096653;28;20043;-87
2023/08/18 07:00:20;;;;;;;8.35;2.97;;;17.60;99.90;;;;;;5096637;28;20036;-88
2023/08/18 07:02:47;;;;;;;8.13;3.45;;;17.70;99.90;;;;;;5096382;28;20496;-87
2023/08/18 07:05:13;;;;;;;6.65;2.80;;;17.70;99.90;;;;;;5096446;28;20480;-87
2023/08/18 07:07:40;;;;;;;9.13;3.47;;;17.70;99.90;;;;;;5079823;28;20032;-87
2023/08/18 07:10:08;;;;;;;7.60;3.00;;;17.80;99.90;;;;;;5096299;28;20104;-87
2023/08/18 07:12:35;;;;;;;5.22;2.58;;;17.80;99.90;;;;;;5079420;28;20063;-87
2023/08/18 07:15:03;;;;;;;6.53;2.60;;;17.80;99.90;;;;;;5096259;28;20052;-87
2023/08/18 07:17:30;;;;;;;10.05;3.03;;;17.80;99.90;;;;;;5079641;28;20480;-86
2023/08/18 07:19:56;;;;;;;8.40;2.95;;;17.90;99.90;;;;;;5062755;28;20248;-87
2023/08/18 07:22:23;;;;;;;6.30;3.20;;;17.90;99.90;;;;;;5079549;28;20040;-87
2023/08/18 07:24:50;;;;;;;7.07;3.38;;;17.90;99.90;;;;;;5063182;28;20044;-87
2023/08/18 07:27:17;;;;;;;5.30;3.17;;;18.00;99.90;;;;;;5079598;28;20113;-88
2023/08/18 07:29:43;;;;;;;7.18;3.22;;;18.00;99.90;;;;;;5096403;28;20040;-88
2023/08/18 07:32:10;;;;;;;6.93;3.47;;;18.10;99.90;;;;;;5095720;28;20043;-87
2023/08/18 07:34:37;;;;;;;8.98;3.45;;;18.10;99.90;;;;;;5078889;28;20043;-87
2023/08/18 07:37:05;;;;;;;7.03;3.60;;;18.20;99.90;;;;;;5063116;28;20044;-88
2023/08/18 07:39:32;;;;;;;7.22;3.63;;;18.20;99.90;;;;;;5079311;28;20576;-87
2023/08/18 07:41:59;;;;;;;8.23;3.38;;;18.20;99.90;;;;;;5062579;28;20127;-87
2023/08/18 07:44:25;;;;;;;6.65;3.15;;;18.30;99.90;;;;;;5062902;28;20047;-87
2023/08/18 07:46:52;;;;;;;6.68;3.53;;;18.30;99.90;;;;;;5095848;28;20131;-87
2023/08/18 07:49:19;;;;;;;5.80;3.10;;;18.30;99.90;;;;;;5062472;28;20051;-88
2023/08/18 07:51:46;;;;;;;9.00;3.40;;;18.40;99.90;;;;;;5078054;28;20101;-87
2023/08/18 07:54:12;;;;;;;7.43;3.25;;;18.40;99.90;;;;;;5081949;28;20103;-87
2023/08/18 07:56:39;;;;;;;6.50;3.25;;;18.40;99.90;;;;;;5095229;28;20050;-87
2023/08/18 07:59:06;;;;;;;5.90;3.33;;;18.40;99.90;;;;;;5095231;28;20040;-87
2023/08/18 08:01:33;;;;;;;6.70;3.40;;;18.40;99.90;;;;;;5078775;28;20047;-87
2023/08/18 08:03:59;;;;;;;5.15;3.00;;;18.40;99.90;;;;;;5095410;28;20039;-87
2023/08/18 08:06:26;;;;;;;6.00;3.70;;;18.50;99.90;;;;;;5095298;28;20036;-88
2023/08/18 08:08:53;;;;;;;6.30;3.42;;;18.50;99.90;;;;;;5094898;28;20093;-87
2023/08/18 08:11:20;;;;;;;6.53;3.88;;;18.50;99.90;;;;;;5078637;28;20044;-88
2023/08/18 08:13:46;;;;;;;5.05;3.38;;;18.60;99.90;;;;;;5094788;28;20130;-87
2023/08/18 08:16:13;;;;;;;7.32;3.78;;;18.50;99.90;;;;;;5078515;28;20075;-88
2023/08/18 08:18:40;;;;;;;5.65;3.35;;;18.60;99.90;;;;;;5078311;28;20052;-87
2023/08/18 08:21:07;;;;;;;7.85;3.95;;;18.60;99.90;;;;;;5078392;28;20112;-88
2023/08/18 08:23:33;;;;;;;6.63;3.60;;;18.70;99.90;;;;;;5078325;28;20043;-87
2023/08/18 08:26:00;;;;;;;9.50;4.15;;;18.80;99.90;;;;;;5094606;28;20130;-87
2023/08/18 08:28:27;;;;;;;5.63;3.63;;;18.90;99.90;;;;;;5078256;28;20044;-88
2023/08/18 08:30:54;;;;;;;6.90;3.95;;;18.90;99.90;;;;;;5094360;28;20044;-88
2023/08/18 08:33:21;;;;;;;7.88;3.85;;;18.90;99.90;;;;;;5094758;28;20050;-88
2023/08/18 08:35:48;;;;;;;6.22;3.50;;;18.90;99.90;;;;;;5094359;28;20131;-88
2023/08/18 08:38:15;;;;;;;6.47;3.65;;;19.00;99.90;;;;;;5078409;28;20068;-88
2023/08/18 08:40:42;;;;;;;6.63;3.78;;;19.00;99.90;;;;;;5077630;28;20040;-88
2023/08/18 08:43:09;;;;;;;8.88;3.90;;;19.10;99.90;;;;;;5078052;28;20080;-88
2023/08/18 08:45:38;;;;;;;6.30;3.88;;;19.10;99.90;;;;;;5095173;28;20102;-87
2023/08/18 08:48:07;;;;;;;8.77;3.75;;;19.10;99.90;;;;;;5062288;28;20036;-88
2023/08/18 08:50:38;;;;;;;6.78;3.70;;;19.10;99.90;;;;;;5078005;28;20032;-88
2023/08/18 08:53:09;;;;;;;7.13;3.78;;;19.10;99.90;;;;;;5094261;28;20131;-88
2023/08/18 08:55:37;;;;;;;10.95;4.10;;;19.20;99.90;;;;;;5111150;28;20416;-87
2023/08/18 08:58:05;;;;;;;6.35;4.05;;;19.20;99.90;;;;;;5077461;28;20040;-88
2023/08/18 09:00:32;;;;;;;7.70;4.00;;;19.20;99.90;;;;;;5111238;28;20062;-87
2023/08/18 09:03:00;;;;;;;6.35;3.90;;;19.20;99.90;;;;;;5059970;28;20048;-88
2023/08/18 09:05:34;;;;;;;6.68;4.03;;;19.30;99.90;;;;;;5077717;28;20040;-88
2023/08/18 09:08:01;;;;;;;9.93;4.00;;;19.50;99.90;;;;;;5077472;28;20125;-87
2023/08/18 09:10:27;;;;;;;8.88;3.88;;;19.60;99.90;;;;;;5094071;28;20132;-88
2023/08/18 09:12:55;;;;;;;6.35;4.15;;;19.60;99.90;;;;;;5077845;28;20377;-90
2023/08/18 09:15:23;;;;;;;7.22;4.38;;;19.70;99.90;;;;;;5077453;28;20055;-88
2023/08/18 09:17:53;;;;;;;6.80;4.20;;;19.60;99.90;;;;;;5093651;28;20445;-87
2023/08/18 09:20:21;;;;;;;9.85;4.20;;;19.70;99.90;;;;;;5093904;28;20044;-88
2023/08/18 09:22:52;;;;;;;8.65;4.47;;;19.70;99.90;;;;;;5076971;28;20138;-87
2023/08/18 09:25:18;;;;;;;7.45;4.57;;;19.80;99.90;;;;;;5077769;28;20488;-88
2023/08/18 09:27:45;;;;;;;7.68;4.10;;;19.90;99.90;;;;;;5093536;28;20071;-86
2023/08/18 09:30:12;;;;;;;6.63;4.20;;;20.00;99.90;;;;;;5093936;28;20564;-87
2023/08/18 09:32:39;;;;;;;6.68;4.28;;;20.10;99.90;;;;;;5094237;28;20040;-88
2023/08/18 09:35:11;;;;;;;5.82;3.88;;;20.20;99.90;;;;;;5077173;28;20468;-87
2023/08/18 09:37:38;;;;;;;8.13;4.20;;;20.30;99.90;;;;;;5076931;28;20074;-88
2023/08/18 09:40:05;;;;;;;10.15;4.63;;;20.40;99.90;;;;;;5093109;28;20044;-88
2023/08/18 09:42:32;;;;;;;8.40;4.90;;;20.50;99.90;;;;;;5089326;28;20048;-88
2023/08/18 09:44:59;;;;;;;7.38;4.45;;;20.50;99.90;;;;;;5089609;28;20047;-87
2023/08/18 09:47:30;;;;;;;8.48;4.97;;;20.60;99.90;;;;;;5073365;28;20131;-87
2023/08/18 09:49:58;;;;;;;7.57;4.55;;;20.60;99.90;;;;;;5073419;28;20040;-87
2023/08/18 09:52:33;;;;;;;7.72;4.32;;;20.70;99.90;;;;;;5090021;28;20040;-87
2023/08/18 09:55:11;;;;;;;7.32;4.80;;;21.00;99.90;;;;;;5073540;28;20095;-87
2023/08/18 09:57:57;;;;;;;9.60;4.82;;;21.00;99.90;;;;;;5089766;28;20045;-87
2023/08/18 10:00:25;;;;;;;7.88;4.55;;;21.20;99.90;;;;;;5089657;28;20492;-87
2023/08/18 10:02:56;;;;;;;7.38;4.45;;;21.40;99.90;;;;;;5072835;28;20049;-87
2023/08/18 10:05:24;;;;;;;8.20;4.68;;;21.40;99.90;;;;;;5089959;28;20045;-88
2023/08/18 10:07:51;;;;;;;9.38;4.60;;;21.50;99.90;;;;;;5073103;28;20072;-87
2023/08/18 10:10:19;;;;;;;10.02;4.78;;;21.50;99.90;;;;;;5073235;28;20072;-87
2023/08/18 10:12:46;;;;;;;8.85;4.75;;;21.60;99.90;;;;;;5089713;28;20036;-88
2023/08/18 10:15:14;;;;;;;7.13;4.70;;;21.60;99.90;;;;;;5076533;28;20070;-87
2023/08/18 10:17:42;;;;;;;11.10;4.97;;;21.60;99.90;;;;;;5093679;28;20044;-87
2023/08/18 10:20:12;;;;;;;8.50;4.68;;;21.60;99.90;;;;;;5060222;28;20396;-87
2023/08/18 10:22:41;;;;;;;9.73;5.00;;;21.70;99.90;;;;;;5093513;28;20063;-88
2023/08/18 10:25:09;;;;;;;16.25;4.95;;;21.70;99.90;;;;;;5093348;28;20043;-88
2023/08/18 10:27:38;;;;;;;9.55;5.18;;;21.80;99.90;;;;;;5077414;28;20059;-87
2023/08/18 10:30:08;;;;;;;6.68;4.30;;;21.80;99.90;;;;;;5093655;28;20182;-87
2023/08/18 10:32:35;;;;;;;7.65;4.50;;;21.90;99.90;;;;;;5093549;28;20139;-87
2023/08/18 10:35:23;;;;;;;8.20;4.78;;;22.00;99.90;;;;;;5093066;28;20048;-87
2023/08/18 10:37:51;;;;;;;8.43;4.78;;;22.10;99.90;;;;;;5093343;28;20401;-87
2023/08/18 10:40:35;;;;;;;8.45;4.93;;;22.00;99.90;;;;;;5093215;28;20057;-88
2023/08/18 10:43:24;;;;;;;10.15;5.47;;;22.10;99.90;;;;;;5092876;28;20071;-87
2023/08/18 10:45:56;;;;;;;11.73;5.50;;;22.20;99.90;;;;;;5093281;28;20131;-88
2023/08/18 10:48:27;;;;;;;8.80;4.72;;;22.40;99.90;;;;;;5093055;28;20071;-87
2023/08/18 10:50:54;;;;;;;9.30;5.10;;;22.50;99.90;;;;;;5109693;28;20071;-87
2023/08/18 10:53:21;;;;;;;8.05;5.28;;;22.70;99.90;;;;;;5092933;28;20072;-88
2023/08/18 10:55:47;;;;;;;10.18;5.25;;;22.80;99.90;;;;;;5059908;28;20074;-87
2023/08/18 10:58:15;;;;;;;10.13;5.53;;;22.80;99.90;;;;;;5075842;28;20041;-87
2023/08/18 11:00:42;;;;;;;10.00;5.65;;;22.80;99.90;;;;;;5060118;28;20068;-88
2023/08/18 11:03:08;;;;;;;10.88;5.45;;;23.00;99.90;;;;;;5092925;28;20029;-87
2023/08/18 11:05:35;;;;;;;11.82;6.20;;;23.10;99.90;;;;;;5092867;28;20033;-88
2023/08/18 11:08:04;;;;;;;11.07;5.30;;;23.30;99.90;;;;;;5076507;28;20079;-87
2023/08/18 11:10:30;;;;;;;10.20;5.70;;;23.40;99.90;;;;;;5092745;28;20401;-87
2023/08/18 11:12:58;;;;;;;10.02;6.07;;;23.50;99.90;;;;;;5092858;28;20049;-87
2023/08/18 11:15:25;;;;;;;10.55;5.30;;;23.50;99.90;;;;;;5075593;28;20040;-88
2023/08/18 11:17:52;;;;;;;9.80;6.32;;;23.40;99.90;;;;;;5092718;28;20127;-88
2023/08/18 11:20:19;;;;;;;10.20;6.35;;;23.30;99.90;;;;;;5092466;28;20152;-87
2023/08/18 11:22:48;;;;;;;9.93;6.00;;;23.40;99.90;;;;;;5092450;28;20080;-88
2023/08/18 11:25:16;;;;;;;12.55;6.40;;;23.60;99.90;;;;;;5108269;28;20123;-88
2023/08/18 11:27:47;;;;;;;15.90;6.72;;;23.90;99.90;;;;;;5059529;28;20037;-87
2023/08/18 11:30:15;;;;;;;12.27;6.25;;;24.00;99.90;;;;;;5075380;28;20072;-88
2023/08/18 11:32:44;;;;;;;12.38;6.85;;;24.20;99.90;;;;;;5076042;28;20048;-88
2023/08/18 11:35:12;;;;;;;11.48;6.75;;;24.30;99.90;;;;;;5075612;28;20041;-88
2023/08/18 11:37:43;;;;;;;13.45;6.30;;;24.40;99.90;;;;;;5092619;28;20617;-88
2023/08/18 11:40:14;;;;;;;13.15;6.30;;;24.60;99.90;;;;;;5091894;28;20407;-88
2023/08/18 11:42:49;;;;;;;10.38;6.30;;;24.50;99.90;;;;;;5092213;28;20052;-88
2023/08/18 11:45:30;;;;;;;10.38;6.32;;;24.50;99.90;;;;;;5075429;28;20413;-88
2023/08/18 11:48:03;;;;;;;9.65;5.95;;;24.50;99.90;;;;;;5092664;28;20103;-88
2023/08/18 11:50:31;;;;;;;10.65;6.63;;;24.50;99.90;;;;;;5091996;28;20098;-88
2023/08/18 11:52:58;;;;;;;9.23;6.13;;;24.60;99.90;;;;;;5091960;28;20087;-88
2023/08/18 11:55:40;;;;;;;13.13;6.32;;;24.50;99.90;;;;;;5075357;28;20400;-88
2023/08/18 11:58:14;;;;;;;11.68;6.32;;;24.40;99.90;;;;;;5092556;28;20045;-87
2023/08/18 12:00:42;;;;;;;13.05;5.68;;;24.30;99.90;;;;;;5092949;28;20049;-88
2023/08/18 12:03:39;;;;;;;9.40;6.35;;;24.20;99.90;;;;;;5091913;28;20404;-88
2023/08/18 12:06:06;;;;;;;10.38;6.28;;;24.20;99.90;;;;;;5092215;28;20131;-88
2023/08/18 12:08:33;;;;;;;10.90;6.65;;;24.10;99.90;;;;;;5091949;28;20433;-89
2023/08/18 12:11:00;;;;;;;12.60;6.55;;;24.10;99.90;;;;;;5091732;28;20480;-88
2023/08/18 12:13:33;;;;;;;11.45;6.55;;;24.00;99.90;;;;;;5092148;28;20044;-88
2023/08/18 12:16:00;;;;;;;10.57;7.25;;;24.00;99.90;;;;;;5092003;28;20041;-88
2023/08/18 12:18:28;;;;;;;11.02;7.10;;;23.90;99.90;;;;;;5074621;28;20550;-88
2023/08/18 12:20:54;;;;;;;10.07;6.45;;;24.00;99.90;;;;;;5091614;28;20039;-88
2023/08/18 12:23:21;;;;;;;9.15;6.13;;;24.00;99.90;;;;;;5091305;28;20396;-88
2023/08/18 12:25:48;;;;;;;10.20;5.97;;;24.10;99.90;;;;;;5075270;28;20495;-87
2023/08/18 12:28:15;;;;;;;9.45;6.32;;;24.20;99.90;;;;;;5091415;28;20041;-88
2023/08/18 12:30:42;;;;;;;8.80;6.00;;;24.30;99.90;;;;;;5075170;28;20046;-88
2023/08/18 12:33:09;;;;;;;8.18;6.15;;;24.40;99.90;;;;;;5075271;28;20066;-88
2023/08/18 12:35:35;;;;;;;8.43;5.93;;;24.50;99.90;;;;;;5092231;28;20063;-88
2023/08/18 12:38:02;;;;;;;9.00;5.72;;;24.70;99.90;;;;;;5091407;28;20045;-89
2023/08/18 12:40:29;;;;;;;10.50;6.97;;;24.90;99.90;;;;;;5091250;28;20044;-87
2023/08/18 12:42:56;;;;;;;10.10;6.80;;;25.10;99.90;;;;;;5074451;28;20061;-88
2023/08/18 12:45:23;;;;;;;10.55;6.93;;;25.30;99.90;;;;;;5091531;28;20074;-89
2023/08/18 12:47:53;;;;;;;10.10;6.80;;;25.50;99.90;;;;;;5074814;28;20459;-89
2023/08/18 12:50:20;;;;;;;9.73;6.75;;;25.50;99.90;;;;;;5090842;28;20129;-88